Flight Track Log - Related Links

Times and Time Zones

All times are in EDT time to prevent confusion due to time zone crossing. See the AVN10 flight status page for this flight to view local times or setup timezone preferences in your user account.

Time Position Orientation Groundspeed Altitude Reporting Facility
EDT Latitude Longitude Course Direction KTS MPH feet Rate Location/Type
Tue 02:13:00 AM -17.9084 168.2133 206° Southwest  Level FlightAware Approximate
Tue 02:14:00 AM -18.0129 168.1600 206° Southwest  Level FlightAware Approximate
Tue 02:15:00 AM -18.1175 168.1066 206° Southwest  Level FlightAware Approximate
Tue 02:16:00 AM -18.2220 168.0531 206° Southwest  Level FlightAware Approximate
Tue 02:17:00 AM -18.3264 167.9996 206° Southwest  Level FlightAware Approximate
Tue 02:18:00 AM -18.4309 167.9460 206° Southwest  Level FlightAware Approximate
Tue 02:19:00 AM -18.5354 167.8924 206° Southwest  Level FlightAware Approximate
Tue 02:20:00 AM -18.6234 167.8123 204° Southwest  Level Estimated
Tue 02:21:00 AM -18.7298 167.7631 204° Southwest  Level FlightAware Approximate
Tue 02:22:00 AM -18.8362 167.7138 204° Southwest  Level FlightAware Approximate
Tue 02:23:00 AM -18.9426 167.6644 204° Southwest  Level FlightAware Approximate
Tue 02:24:00 AM -19.0489 167.6150 204° Southwest  Level FlightAware Approximate
Tue 02:25:00 AM -19.1553 167.5655 204° Southwest  Level FlightAware Approximate
Tue 02:26:00 AM -19.2616 167.5160 204° Southwest  Level FlightAware Approximate
Tue 02:27:00 AM -19.3680 167.4664 204° Southwest  Level FlightAware Approximate
Tue 02:28:00 AM -19.4743 167.4167 204° Southwest  Level FlightAware Approximate
Tue 02:29:00 AM -19.5806 167.3669 204° Southwest  Level FlightAware Approximate
Tue 02:30:00 AM -19.6869 167.3171 204° Southwest  Level FlightAware Approximate
Tue 02:31:00 AM -19.7932 167.2673 204° Southwest  Level FlightAware Approximate
Tue 02:32:00 AM -19.8994 167.2173 204° Southwest  Level FlightAware Approximate
Tue 02:33:00 AM -20.0057 167.1673 204° Southwest  Level FlightAware Approximate
Tue 02:34:00 AM -20.1119 167.1172 204° Southwest  Level FlightAware Approximate
Tue 02:35:00 AM -20.2181 167.0671 204° Southwest  Level FlightAware Approximate
Tue 02:36:00 AM -20.3244 167.0169 204° Southwest  Level FlightAware Approximate
Tue 02:37:00 AM -20.4305 166.9666 204° Southwest  Level FlightAware Approximate
Tue 02:38:00 AM -20.5367 166.9162 204° Southwest  Level FlightAware Approximate
Tue 02:39:00 AM -20.6429 166.8658 204° Southwest  Level FlightAware Approximate
Tue 02:39:59 AM -20.5650 166.8960 204° Southwest 435 501 34,000  Level FlightAware ADS-B
Tue 02:40:00 AM -20.7490 166.8153 204° Southwest  Level FlightAware Approximate
Tue 02:40:47 AM -20.6530 166.8550 204° Southwest 435 501 34,000  Level FlightAware ADS-B
Tue 02:41:19 AM -20.7110 166.8270 204° Southwest 435 501 34,000  Level FlightAware ADS-B
Tue 02:41:59 AM -20.7860 166.7920 204° Southwest 433 498 34,000  Level FlightAware ADS-B
Tue 02:42:32 AM -20.8460 166.7640 204° Southwest 433 498 34,000  Level FlightAware ADS-B
Tue 02:43:08 AM -20.9140 166.7310 204° Southwest 433 498 34,000  Level FlightAware ADS-B
Tue 02:43:44 AM -20.9790 166.7010 203° Southwest 432 497 34,000  Level FlightAware ADS-B
Tue 02:44:16 AM -21.0370 166.6730 204° Southwest 432 497 34,000  Level FlightAware ADS-B
Tue 02:44:52 AM -21.1040 166.6420 203° Southwest 431 496 34,000  Level FlightAware ADS-B
Tue 02:45:30 AM -21.1710 166.6100 204° Southwest 431 496 34,000  Level FlightAware ADS-B
Tue 02:46:02 AM -21.2320 166.5810 204° Southwest 431 496 34,000  Level FlightAware ADS-B
Tue 02:46:38 AM -21.2980 166.5500 204° Southwest 431 496 34,000  Level FlightAware ADS-B
Tue 02:47:13 AM -21.3610 166.5200 204° Southwest 432 497 34,000  Level FlightAware ADS-B
Tue 02:47:49 AM -21.4270 166.4880 204° Southwest 433 498 34,000  Level FlightAware ADS-B
Tue 02:48:21 AM -21.4870 166.4600 203° Southwest 433 498 34,000  Level FlightAware ADS-B
Tue 02:48:57 AM -21.5520 166.4290 204° Southwest 433 498 34,000  Level FlightAware ADS-B
Tue 02:49:29 AM -21.6110 166.4000 205° Southwest 433 498 34,000  Level FlightAware ADS-B
Tue 02:50:09 AM -21.6850 166.3650 204° Southwest 434 499 34,000  Level FlightAware ADS-B
Tue 02:50:41 AM -21.7440 166.3370 204° Southwest 435 501 34,000  Level FlightAware ADS-B
Tue 02:51:18 AM -21.8110 166.3050 204° Southwest 435 501 34,000  Level FlightAware ADS-B
Tue 02:51:55 AM -21.8810 166.2710 204° Southwest 436 502 34,000  Level FlightAware ADS-B
Tue 02:52:27 AM -21.9390 166.2430 204° Southwest 436 502 34,000  Level FlightAware ADS-B
Tue 02:53:02 AM -22.0010 166.2100 206° Southwest 428 493 34,000  Level FlightAware ADS-B
Tue 02:53:39 AM -22.0570 166.1580 221° Southwest 418 481 34,000  Level FlightAware ADS-B
Tue 02:54:11 AM -22.1010 166.1120 224° Southwest 417 480 34,000  Level FlightAware ADS-B
Tue 02:54:48 AM -22.1520 166.0590 224° Southwest 417 480 34,000  Level FlightAware ADS-B
Tue 02:55:25 AM -22.2030 166.0050 224° Southwest 416 479 34,000  Level FlightAware ADS-B
Tue 02:55:57 AM -22.2480 165.9580 224° Southwest 415 478 34,000  Level FlightAware ADS-B
Tue 02:56:33 AM -22.2960 165.9070 225° Southwest 412 474 34,000  Level FlightAware ADS-B
Tue 02:57:10 AM -22.3450 165.8550 224° Southwest 412 474 34,000  Level FlightAware ADS-B
Tue 02:57:41 AM -22.3890 165.8090 224° Southwest 411 473 34,000  Level FlightAware ADS-B
Tue 02:58:18 AM -22.4390 165.7560 224° Southwest 411 473 34,000  Level FlightAware ADS-B
Tue 02:58:54 AM -22.4880 165.7050 224° Southwest 411 473 34,000  Level FlightAware ADS-B
Tue 02:59:29 AM -22.5360 165.6540 224° Southwest 411 473 34,000  Level FlightAware ADS-B
Tue 02:59:59 AM -22.5780 165.6100 224° Southwest 411 473 34,000  Level FlightAware ADS-B
Tue 03:00:38 AM -22.6300 165.5550 224° Southwest 412 474 34,000  Level FlightAware ADS-B
Tue 03:01:09 AM -22.6730 165.5090 225° Southwest 412 474 34,000  Level FlightAware ADS-B
Tue 03:01:47 AM -22.7260 165.4540 224° Southwest 412 474 34,000  Level FlightAware ADS-B
Tue 03:02:24 AM -22.7750 165.4020 224° Southwest 412 474 34,000  Level FlightAware ADS-B
Tue 03:02:59 AM -22.8230 165.3500 225° Southwest 412 474 34,000  Level FlightAware ADS-B
Tue 03:03:33 AM -22.8690 165.3010 224° Southwest 412 474 34,000  Level FlightAware ADS-B
Tue 03:04:05 AM -22.9140 165.2540 224° Southwest 412 474 34,000  Level FlightAware ADS-B
Tue 03:04:41 AM -22.9620 165.2030 224° Southwest 411 473 34,000  Level FlightAware ADS-B
Tue 03:05:17 AM -23.0100 165.1510 225° Southwest 411 473 34,000  Level FlightAware ADS-B
Tue 03:05:55 AM -23.0630 165.0950 224° Southwest 410 472 34,000  Level FlightAware ADS-B
Tue 03:06:27 AM -23.1060 165.0490 225° Southwest 410 472 34,000  Level FlightAware ADS-B
Tue 03:07:10 AM -23.1620 164.9880 225° Southwest 410 472 34,000  Level FlightAware ADS-B
Tue 03:07:48 AM -23.2090 164.9390 224° Southwest 410 472 34,000  Level FlightAware ADS-B
Tue 03:08:24 AM -23.2510 164.8950 224° Southwest 410 472 34,000  Level FlightAware ADS-B
Tue 03:09:00 AM -23.2920 164.8510 225° Southwest 410 472 34,000  Level FlightAware ADS-B
Tue 03:09:36 AM -23.3340 164.8070 224° Southwest 410 472 34,000  Level FlightAware ADS-B
Tue 03:10:12 AM -23.3760 164.7630 224° Southwest 410 472 34,000  Level FlightAware ADS-B
Tue 03:10:49 AM -23.4190 164.7180 224° Southwest 410 472 34,000  Level FlightAware ADS-B
Tue 03:11:25 AM -23.4600 164.6740 225° Southwest 410 472 34,000  Level FlightAware ADS-B
Tue 03:11:58 AM -23.4990 164.6340 223° Southwest 410 472 34,000  Level FlightAware ADS-B
Tue 03:12:32 AM -23.5380 164.5920 225° Southwest 410 472 34,000  Level FlightAware ADS-B
Tue 03:13:08 AM -23.5800 164.5480 224° Southwest 410 472 34,000  Level FlightAware ADS-B
Tue 03:13:44 AM -23.6220 164.5040 224° Southwest 410 472 34,000  Level FlightAware ADS-B
Tue 03:14:20 AM -23.6630 164.4600 225° Southwest 410 472 34,000  Level FlightAware ADS-B
Tue 03:14:56 AM -23.7050 164.4160 224° Southwest 410 472 34,000  Level FlightAware ADS-B
Tue 03:15:32 AM -23.7470 164.3720 224° Southwest 410 472 34,000  Level FlightAware ADS-B
Tue 03:16:08 AM -23.7890 164.3280 224° Southwest 410 472 34,000  Level FlightAware ADS-B
Tue 03:16:44 AM -23.8300 164.2840 224° Southwest 410 472 34,000  Level FlightAware ADS-B
Tue 03:17:20 AM -23.8720 164.2400 224° Southwest 410 472 34,000  Level FlightAware ADS-B
Tue 03:19:00 AM -24.0082 164.0894 225° Southwest  Level FlightAware Approximate
Tue 03:20:00 AM -24.0898 163.9988 225° Southwest  Level FlightAware Approximate
Tue 03:21:00 AM -24.1714 163.9082 225° Southwest  Level FlightAware Approximate
Tue 03:22:00 AM -24.2529 163.8174 225° Southwest  Level FlightAware Approximate
Tue 03:23:00 AM -24.3344 163.7265 225° Southwest  Level FlightAware Approximate
Tue 03:24:00 AM -24.4158 163.6355 225° Southwest  Level FlightAware Approximate
Tue 03:25:00 AM -24.4971 163.5444 226° Southwest  Level FlightAware Approximate
Tue 03:25:06 AM -24.5476 163.4792 222° Southwest 36,000  Level Aus ATC (Calculated)
Tue 03:27:00 AM -24.6935 163.3180 225° Southwest  Level FlightAware Approximate
Tue 03:28:00 AM -24.7703 163.2330 225° Southwest  Level FlightAware Approximate
Tue 03:28:06 AM -24.8418 163.1523 222° Southwest 36,000  Level Aus ATC (Calculated)
Tue 03:29:01 AM -24.9501 163.0313 222° Southwest 36,000 -34 Level Aus ATC (Calculated)
Tue 03:31:00 AM -25.1062 162.8668 224° Southwest  Level FlightAware Approximate
Tue 03:31:51 AM -25.2119 162.7376 222° Southwest 36,000  Level Aus ATC (Calculated)
Tue 03:32:00 AM -25.0275 162.9498 44° Northeast  Level FlightAware Approximate
Tue 03:33:00 AM -25.0204 162.9545 225° Southwest  Level FlightAware Approximate
Tue 03:34:00 AM -25.3750 162.5537 226° Southwest  Level FlightAware Approximate
Tue 03:35:00 AM -25.4508 162.4680 226° Southwest  Level FlightAware Approximate
Tue 03:36:00 AM -25.5265 162.3821 226° Southwest  Level FlightAware Approximate
Tue 03:37:00 AM -25.6022 162.2962 226° Southwest  Level FlightAware Approximate
Tue 03:38:00 AM -25.6778 162.2102 226° Southwest  Level FlightAware Approximate
Tue 03:39:00 AM -25.7533 162.1240 226° Southwest  Level FlightAware Approximate
Tue 03:40:00 AM -25.8289 162.0378 226° Southwest  Level FlightAware Approximate
Tue 03:41:00 AM -25.9043 161.9514 226° Southwest  Level FlightAware Approximate
Tue 03:42:00 AM -25.9798 161.8649 226° Southwest  Level FlightAware Approximate
Tue 03:43:00 AM -26.0551 161.7783 226° Southwest  Level FlightAware Approximate
Tue 03:44:00 AM -26.1304 161.6916 226° Southwest  Level FlightAware Approximate
Tue 03:45:00 AM -26.2057 161.6048 226° Southwest  Level FlightAware Approximate
Tue 03:46:00 AM -26.2809 161.5179 226° Southwest  Level FlightAware Approximate
Tue 03:47:00 AM -26.3561 161.4308 226° Southwest  Level FlightAware Approximate
Tue 03:48:00 AM -26.4312 161.3437 226° Southwest  Level FlightAware Approximate
Tue 03:49:00 AM -26.5062 161.2564 226° Southwest  Level FlightAware Approximate
Tue 03:50:00 AM -26.5812 161.1691 226° Southwest  Level FlightAware Approximate
Tue 03:51:00 AM -26.6562 161.0816 226° Southwest  Level FlightAware Approximate
Tue 03:51:53 AM -27.2661 160.3628 219° Southwest 36,000  Level Aus ATC (Calculated)
Tue 03:52:00 AM -26.7311 160.9940 226° Southwest  Level FlightAware Approximate
Tue 03:53:00 AM -27.3492 160.2639 227° Southwest  Level FlightAware Approximate
Tue 03:53:53 AM -27.4522 160.1411 219° Southwest 36,000  Level Aus ATC (Calculated)
Tue 03:54:00 AM -27.4236 160.1752 227° Southwest  Level FlightAware Approximate
Tue 03:55:00 AM -27.5351 160.0419 227° Southwest  Level FlightAware Approximate
Tue 03:55:53 AM -27.6533 159.9001 218° Southwest 36,000  Level Aus ATC (Calculated)
Tue 03:56:00 AM -27.6094 159.9529 227° Southwest  Level FlightAware Approximate
Tue 03:57:00 AM -27.7361 159.8005 227° Southwest  Level FlightAware Approximate
Tue 03:58:00 AM -27.8102 159.7112 227° Southwest  Level FlightAware Approximate
Tue 03:59:00 AM -27.8842 159.6218 227° Southwest  Level FlightAware Approximate
Tue 04:00:00 AM -27.9582 159.5322 227° Southwest  Level FlightAware Approximate
Tue 04:01:00 AM -28.0321 159.4425 227° Southwest  Level FlightAware Approximate
Tue 04:01:37 AM -28.2168 159.2176 215° Southwest 36,000  Level Aus ATC (Calculated)
Tue 04:03:00 AM -28.3187 159.0929 227° Southwest  Level FlightAware Approximate
Tue 04:04:00 AM -28.2450 159.1830 47° Northeast  Level FlightAware Approximate
Tue 04:05:00 AM -28.3187 159.0928 227° Southwest  Level FlightAware Approximate
Tue 04:06:00 AM -28.2450 159.1830 47° Northeast  Level FlightAware Approximate
Tue 04:06:31 AM -28.6617 158.6701 209° Southwest 36,000  Level Aus ATC (Calculated)
Tue 04:07:00 AM -28.3232 159.0873 227° Southwest  Level FlightAware Approximate
Tue 04:08:00 AM -28.5461 158.8130 47° Northeast  Level FlightAware Approximate
Tue 04:09:00 AM -28.4681 158.9092 47° Northeast  Level FlightAware Approximate
Tue 04:10:00 AM -28.3901 159.0052 47° Northeast  Level FlightAware Approximate
Tue 04:10:28 AM -28.9863 158.2659 201° Southwest 36,000  Level Aus ATC (Calculated)
Tue 04:10:51 AM -29.0268 158.2153 199° South 36,000 -120 Level Aus ATC (Calculated)
Tue 04:12:00 AM -28.9376 158.3269 48° Northeast  Level FlightAware Approximate
Tue 04:13:00 AM -28.8600 158.4238 48° Northeast  Level FlightAware Approximate
Tue 04:14:00 AM -28.7822 158.5205 48° Northeast  Level FlightAware Approximate
Tue 04:15:00 AM -28.7045 158.6171 47° Northeast  Level FlightAware Approximate
Tue 04:15:50 AM -29.4709 157.6550 155° Southeast 36,000  Level Aus ATC (Calculated)
Tue 04:16:00 AM -28.7805 158.5187 227° Southwest  Level Estimated
Tue 04:17:00 AM -29.5609 157.5406 228° Southwest  Level FlightAware Approximate
Tue 04:18:00 AM -29.6379 157.4424 228° Southwest  Level FlightAware Approximate
Tue 04:19:00 AM -29.7148 157.3440 228° Southwest  Level FlightAware Approximate
Tue 04:20:00 AM -29.7917 157.2455 228° Southwest  Level FlightAware Approximate
Tue 04:20:55 AM -29.8726 157.1415 90° East 36,000  Level Aus ATC (Calculated)
Tue 04:21:00 AM -29.8684 157.1468 228° Southwest  Level FlightAware Approximate
Tue 04:22:00 AM -29.9557 157.0344 228° Southwest  Level FlightAware Approximate
Tue 04:23:00 AM -30.0323 156.9354 228° Southwest  Level FlightAware Approximate
Tue 04:24:00 AM -30.1089 156.8362 228° Southwest  Level FlightAware Approximate
Tue 04:25:00 AM -30.1854 156.7369 228° Southwest  Level FlightAware Approximate
Tue 04:25:54 AM -30.3121 156.5718 69° East 36,000  Level Aus ATC (Calculated)
Tue 04:26:00 AM -30.2617 156.6375 228° Southwest  Level FlightAware Approximate
Tue 04:27:00 AM -30.3960 156.4621 228° Southwest  Level FlightAware Approximate
Tue 04:27:04 AM -29.8758 157.8772 228° Southwest 355 409 34,000  Level Aus ATC (RADAR)
Tue 04:27:39 AM -29.9348 157.8301 215° Southwest 429 494 34,000  Level Aus ATC (RADAR)
Tue 04:27:54 AM -29.9588 157.8110 215° Southwest 429 494 34,000  Level Aus ATC (RADAR)
Tue 04:30:29 AM -30.2280 157.5960 215° Southwest 514 592 34,000  Level Aus ATC (RADAR)
Tue 04:31:04 AM -30.2858 157.5491 215° Southwest 471 542 34,000  Level Aus ATC (RADAR)
Tue 04:31:48 AM -30.3612 157.4878 215° Southwest 456 525 34,000  Level Aus ATC (RADAR)
Tue 04:32:13 AM -30.4011 157.4553 215° Southwest 447 514 34,000  Level Aus ATC (RADAR)
Tue 04:32:48 AM -30.4559 157.4105 215° Southwest 435 501 34,000  Level Aus ATC (RADAR)
Tue 04:33:53 AM -30.5629 157.3236 215° Southwest 434 499 34,000  Level Aus ATC (RADAR)
Tue 04:34:18 AM -30.6036 157.2906 215° Southwest 433 498 34,000  Level Aus ATC (RADAR)
Tue 04:34:53 AM -30.6617 157.2435 215° Southwest 434 499 34,000  Level Aus ATC (RADAR)
Tue 04:35:33 AM -30.7296 157.1883 215° Southwest 440 506 34,000  Level Aus ATC (RADAR)
Tue 04:36:08 AM -30.7829 157.1449 215° Southwest 430 495 34,000  Level Aus ATC (RADAR)
Tue 04:36:53 AM -30.8569 157.0844 215° Southwest 433 498 34,000  Level Aus ATC (RADAR)
Tue 04:37:18 AM -30.8990 157.0500 215° Southwest 438 504 34,000  Level Aus ATC (RADAR)
Tue 04:37:53 AM -30.9575 157.0022 215° Southwest 441 507 34,000  Level Aus ATC (RADAR)
Tue 04:38:48 AM -31.0498 156.9272 215° Southwest 444 511 34,000  Level Aus ATC (RADAR)
Tue 04:39:13 AM -31.0913 156.8928 215° Southwest 436 502 34,000  Level Aus ATC (RADAR)
Tue 04:39:48 AM -31.1507 156.8441 215° Southwest 446 513 34,000  Level Aus ATC (RADAR)
Tue 04:40:32 AM -31.2241 156.7831 215° Southwest 437 503 34,000  Level Aus ATC (RADAR)
Tue 04:41:07 AM -31.2812 156.7357 215° Southwest 434 499 34,000  Level Aus ATC (RADAR)
Tue 04:41:27 AM -31.3135 156.7087 216° Southwest 432 497 34,000  Level Aus ATC (RADAR)
Tue 04:45:42 AM -31.7328 156.3607 215° Southwest 450 518 34,000  Level Aus ATC (RADAR)
Tue 04:46:12 AM -31.7839 156.3190 215° Southwest 446 513 34,000 -92 Level Aus ATC (RADAR)
Tue 04:46:47 AM -31.8414 156.2709 215° Southwest 442 509 33,900 -80 Descending Aus ATC (RADAR)
Tue 04:47:27 AM -31.9061 156.2164 216° Southwest 437 503 33,900 -80 Level Aus ATC (RADAR)
Tue 04:48:02 AM -31.9627 156.1686 216° Southwest 435 501 33,800 60 Descending Aus ATC (RADAR)
Tue 04:49:07 AM -32.0697 156.0789 215° Southwest 436 502 34,000 67 Climbing Aus ATC (RADAR)
Tue 04:49:32 AM -32.1100 156.0450 215° Southwest 433 498 33,900 -102 Descending Aus ATC (RADAR)
Tue 04:50:06 AM -32.1669 155.9969 216° Southwest 433 498 33,900 -71 Level Aus ATC (RADAR)
Tue 04:50:56 AM -32.2493 155.9272 216° Southwest 436 502 33,800  Descending Aus ATC (RADAR)
Tue 04:51:31 AM -32.3065 155.8786 216° Southwest 437 503 33,900 71 Climbing Aus ATC (RADAR)
Tue 04:52:21 AM -32.3882 155.8093 216° Southwest 436 502 33,900  Level Aus ATC (RADAR)
Tue 04:52:46 AM -32.4294 155.7744 216° Southwest 437 503 33,900  Level Aus ATC (RADAR)
Tue 04:53:21 AM -32.4869 155.7251 216° Southwest 437 503 33,900 -67 Level Aus ATC (RADAR)
Tue 04:54:16 AM -32.5772 155.6478 216° Southwest 438 504 33,800 -75 Descending Aus ATC (RADAR)
Tue 04:54:41 AM -32.6181 155.6131 215° Southwest 437 503 33,800 100 Level Aus ATC (RADAR)
Tue 04:55:16 AM -32.6762 155.5631 216° Southwest 442 509 33,900 75 Climbing Aus ATC (RADAR)
Tue 04:56:01 AM -32.7509 155.4994 216° Southwest 442 509 33,900  Level Aus ATC (RADAR)
Tue 04:56:36 AM -32.8086 155.4498 216° Southwest 445 512 33,900 -75 Level Aus ATC (RADAR)
Tue 04:57:21 AM -32.8824 155.3860 216° Southwest 441 507 33,800 -86 Descending Aus ATC (RADAR)
Tue 04:57:46 AM -32.9225 155.3515 216° Southwest 434 499 33,800  Level Aus ATC (RADAR)
Tue 04:58:26 AM -32.9858 155.2958 216° Southwest 428 493 33,800 67 Level Aus ATC (RADAR)
Tue 04:59:15 AM -33.0666 155.2268 216° Southwest 429 494 33,900 81 Climbing Aus ATC (RADAR)
Tue 04:59:40 AM -33.1058 155.1921 217° Southwest 426 490 33,900 700 Level Aus ATC (RADAR)
Tue 05:00:15 AM -33.1613 155.1434 216° Southwest 428 493 34,600 1,475 Climbing Aus ATC (RADAR)
Tue 05:00:41 AM -33.1980 155.1120 216° Southwest 428 493 35,400 1,733 Climbing FlightAware ADS-B
Tue 05:01:00 AM -33.2328 155.0813 216° Southwest 426 490 35,900 267 Climbing Aus ATC (RADAR)
Tue 05:01:26 AM -33.2610 155.0580 216° Southwest 427 491 35,600 91 Descending FlightAware ADS-B
Tue 05:02:06 AM -33.3190 155.0070 216° Southwest 418 481 36,000 320 Climbing FlightAware ADS-B
Tue 05:02:41 AM -33.3830 154.9510 216° Southwest 382 440 36,000  Level FlightAware ADS-B
Tue 05:03:17 AM -33.4310 154.9100 215° Southwest 369 425 36,000  Level FlightAware ADS-B
Tue 05:04:12 AM -33.4960 154.8520 217° Southwest 367 422 36,000  Level FlightAware ADS-B
Tue 05:04:48 AM -33.5380 154.8160 216° Southwest 367 422 36,000  Level FlightAware ADS-B
Tue 05:05:19 AM -33.5970 154.7630 217° Southwest 366 421 36,000  Level FlightAware ADS-B
Tue 05:05:55 AM -33.6470 154.7190 216° Southwest 368 423 36,000  Level FlightAware ADS-B
Tue 05:06:38 AM -33.7070 154.6670 216° Southwest 369 425 36,000  Level FlightAware ADS-B
Tue 05:07:24 AM -33.7700 154.6110 216° Southwest 370 426 36,000  Level FlightAware ADS-B
Tue 05:07:56 AM -33.8160 154.5700 217° Southwest 371 427 36,000  Level FlightAware ADS-B
Tue 05:08:32 AM -33.8660 154.5250 217° Southwest 371 427 36,000  Level FlightAware ADS-B
Tue 05:09:06 AM -33.9130 154.4840 216° Southwest 370 426 36,000  Level FlightAware ADS-B
Tue 05:09:24 AM -33.9350 154.4590 223° Southwest 353 406 36,000  Level FlightAware ADS-B
Tue 05:09:41 AM -33.9440 154.4310 249° West 340 391 36,000  Level FlightAware ADS-B
Tue 05:10:16 AM -33.9500 154.3660 264° West 337 388 36,000  Level FlightAware ADS-B
Tue 05:10:58 AM -33.9570 154.2850 264° West 339 390 36,000  Level FlightAware ADS-B
Tue 05:11:32 AM -33.9620 154.2190 265° West 340 391 36,000  Level FlightAware ADS-B
Tue 05:12:08 AM -33.9670 154.1550 265° West 341 392 36,000 -179 Level FlightAware ADS-B
Tue 05:12:39 AM -33.9712 154.0887 265° West 335 386 35,800  Descending Aus ATC (RADAR)
Tue 05:12:40 AM -33.9720 154.0980 265° West 341 392 36,000 300 Climbing FlightAware ADS-B
Tue 05:13:19 AM -33.9780 154.0200 265° West 341 392 36,000  Level FlightAware ADS-B
Tue 05:14:00 AM -33.9840 153.9420 265° West 337 388 36,000 -156 Level FlightAware ADS-B
Tue 05:14:36 AM -33.9896 153.8693 265° West 321 369 35,800  Descending Aus ATC (RADAR)
Tue 05:14:41 AM -33.9900 153.8660 265° West 333 383 36,000 300 Climbing FlightAware ADS-B
Tue 05:15:16 AM -33.9940 153.8030 266° West 330 380 36,000  Level FlightAware ADS-B
Tue 05:15:54 AM -34.0000 153.7320 264° West 330 380 36,000  Level FlightAware ADS-B
Tue 05:16:11 AM -34.0030 153.7040 263° West 332 382 36,000  Level FlightAware ADS-B
Tue 05:16:21 AM -34.0110 153.6820 246° West 342 394 36,000  Level FlightAware ADS-B
Tue 05:16:33 AM -34.0240 153.6650 227° Southwest 355 409 36,000  Level FlightAware ADS-B
Tue 05:17:08 AM -34.0640 153.6170 225° Southwest 359 413 36,000  Level FlightAware ADS-B
Tue 05:17:44 AM -34.1060 153.5660 225° Southwest 360 414 36,000  Level FlightAware ADS-B
Tue 05:18:16 AM -34.1410 153.5250 224° Southwest 359 413 36,000 -194 Level FlightAware ADS-B
Tue 05:18:46 AM -34.1818 153.4745 224° Southwest 351 404 35,800  Descending Aus ATC (RADAR)
Tue 05:18:52 AM -34.1860 153.4690 224° Southwest 360 414 36,000 286 Climbing FlightAware ADS-B
Tue 05:19:28 AM -34.2290 153.4180 224° Southwest 362 417 36,000 -182 Level FlightAware ADS-B
Tue 05:19:58 AM -34.2684 153.3714 224° Southwest 360 414 35,800  Descending Aus ATC (RADAR)
Tue 05:20:07 AM -34.2740 153.3640 224° Southwest 362 417 36,000 324 Climbing FlightAware ADS-B
Tue 05:20:35 AM -34.3080 153.3250 223° Southwest 361 415 36,000  Level FlightAware ADS-B
Tue 05:21:09 AM -34.3500 153.2760 224° Southwest 361 415 36,000 -185 Level FlightAware ADS-B
Tue 05:21:40 AM -34.3915 153.2287 224° Southwest 353 406 35,800  Descending Aus ATC (RADAR)
Tue 05:21:51 AM -34.3990 153.2190 224° Southwest 364 419 36,000 316 Climbing FlightAware ADS-B
Tue 05:22:18 AM -34.4370 153.1880 214° Southwest 388 447 36,000  Level FlightAware ADS-B
Tue 05:22:55 AM -34.5000 153.1550 203° Southwest 391 450 36,000 -179 Level FlightAware ADS-B
Tue 05:23:25 AM -34.5562 153.1275 203° Southwest 388 447 35,800  Descending Aus ATC (RADAR)
Tue 05:23:26 AM -34.5520 153.1290 203° Southwest 389 448 36,000  Climbing FlightAware ADS-B
Tue 05:24:00 AM -34.6143 153.0985 203° Southwest 387 445 35,800  Descending Aus ATC (RADAR)
Tue 05:24:02 AM -34.6120 153.0990 203° Southwest 387 445 36,000 343 Climbing FlightAware ADS-B
Tue 05:24:35 AM -34.6660 153.0700 204° Southwest 377 434 36,000  Level FlightAware ADS-B
Tue 05:24:59 AM -34.6890 153.0310 234° Southwest 337 388 36,000  Level FlightAware ADS-B
Tue 05:25:12 AM -34.6920 153.0120 259° West 327 376 36,000  Level FlightAware ADS-B
Tue 05:25:33 AM -34.6840 152.9750 285° West 325 374 36,000  Level FlightAware ADS-B
Tue 05:25:45 AM -34.6710 152.9570 311° West 333 383 36,000  Level FlightAware ADS-B
Tue 05:25:56 AM -34.6570 152.9450 325° Northwest 343 395 36,000  Level FlightAware ADS-B
Tue 05:26:26 AM -34.6160 152.9190 332° Northwest 346 398 36,000 -88 Level FlightAware ADS-B
Tue 05:27:04 AM -34.5640 152.8850 332° Northwest 334 384 35,900 -1,378 Descending FlightAware ADS-B
Tue 05:27:40 AM -34.5140 152.8520 331° Northwest 337 388 34,300 -2,108 Descending FlightAware ADS-B
Tue 05:28:18 AM -34.4640 152.8160 331° Northwest 343 395 33,300 -2,286 Descending FlightAware ADS-B
Tue 05:28:22 AM -34.4505 152.8058 331° Northwest 337 388 32,700 -2,727 Descending Aus ATC (RADAR)
Tue 05:28:29 AM -34.4490 152.7990 317° Northwest 336 387 32,800 -1,571 Climbing FlightAware ADS-B
Tue 05:29:04 AM -34.4210 152.7450 302° West 331 381 31,600 -1,920 Descending FlightAware ADS-B
Tue 05:29:44 AM -34.3880 152.6860 304° West 322 371 30,400 -1,784 Descending FlightAware ADS-B
Tue 05:30:18 AM -34.3600 152.6370 305° West 316 364 29,400 -1,800 Descending FlightAware ADS-B
Tue 05:30:54 AM -34.3290 152.5830 305° West 308 354 28,300 -1,747 Descending FlightAware ADS-B
Tue 05:31:37 AM -34.2960 152.5230 304° West 299 344 27,100 -1,747 Descending FlightAware ADS-B
Tue 05:32:13 AM -34.2660 152.4710 305° West 305 351 26,000 -1,800 Descending FlightAware ADS-B
Tue 05:32:47 AM -34.2390 152.4230 304° West 310 357 25,000 -1,765 Descending FlightAware ADS-B
Tue 05:33:21 AM -34.2110 152.3750 305° West 305 351 24,000 -1,690 Descending FlightAware ADS-B
Tue 05:33:58 AM -34.1820 152.3240 304° West 296 341 23,000 -1,629 Descending FlightAware ADS-B
Tue 05:34:31 AM -34.1570 152.2810 305° West 287 330 22,100 -1,652 Descending FlightAware ADS-B
Tue 05:35:07 AM -34.1310 152.2340 304° West 284 327 21,100 -1,909 Descending FlightAware ADS-B
Tue 05:35:37 AM -34.1047 152.1904 304° West 282 325 20,000 -1,459 Descending Aus ATC (RADAR)
Tue 05:35:44 AM -34.1030 152.1870 304° West 286 329 20,200 -1,105 Climbing FlightAware ADS-B
Tue 05:36:15 AM -34.0800 152.1450 303° West 279 321 19,300 -1,652 Descending FlightAware ADS-B
Tue 05:36:53 AM -34.0520 152.0980 306° West 270 311 18,300 -1,562 Descending FlightAware ADS-B
Tue 05:37:28 AM -34.0330 152.0520 296° West 261 300 17,400 -1,565 Descending FlightAware ADS-B
Tue 05:38:02 AM -34.0280 152.0010 277° West 268 308 16,500 -1,477 Descending FlightAware ADS-B
Tue 05:38:33 AM -34.0240 151.9570 276° West 265 305 15,800 -1,565 Descending FlightAware ADS-B
Tue 05:39:11 AM -34.0180 151.9000 277° West 263 303 14,700 -1,622 Descending FlightAware ADS-B
Tue 05:39:47 AM -34.0130 151.8490 277° West 258 297 13,800 -1,521 Descending FlightAware ADS-B
Tue 05:40:22 AM -34.0070 151.7970 278° West 254 292 12,900 -1,521 Descending FlightAware ADS-B
Tue 05:40:58 AM -34.0020 151.7490 277° West 250 288 12,000 -1,521 Descending FlightAware ADS-B
Tue 05:41:33 AM -33.9970 151.6990 277° West 246 283 11,100 -1,364 Descending FlightAware ADS-B
Tue 05:42:04 AM -33.9930 151.6580 277° West 239 275 10,500 -1,263 Descending FlightAware ADS-B
Tue 05:42:30 AM -33.9900 151.6240 276° West 234 269 9,900 -1,395 Descending FlightAware ADS-B
Tue 05:42:47 AM -33.9870 151.6010 279° West 231 266 9,500 -1,579 Descending FlightAware ADS-B
Tue 05:43:27 AM -33.9970 151.5510 256° West 255 293 8,400 -1,700 Descending FlightAware ADS-B
Tue 05:43:47 AM -34.0140 151.5300 226° Southwest 260 299 7,800 -1,800 Descending FlightAware ADS-B
Tue 05:44:07 AM -34.0320 151.5070 227° Southwest 265 305 7,200 -1,800 Descending FlightAware ADS-B
Tue 05:44:27 AM -34.0480 151.4850 229° Southwest 267 307 6,600 -1,610 Descending FlightAware ADS-B
Tue 05:44:48 AM -34.0650 151.4620 228° Southwest 265 305 6,100 -1,317 Descending FlightAware ADS-B
Tue 05:45:08 AM -34.0800 151.4410 229° Southwest 257 296 5,700 -1,029 Descending FlightAware ADS-B
Tue 05:45:23 AM -34.0930 151.4240 227° Southwest 251 289 5,500 -857 Descending FlightAware ADS-B
Tue 05:45:43 AM -34.1080 151.4040 228° Southwest 246 283 5,200 -750 Descending FlightAware ADS-B
Tue 05:46:03 AM -34.1210 151.3870 227° Southwest 240 276 5,000 -955 Descending FlightAware ADS-B
Tue 05:46:27 AM -34.1400 151.3590 231° Southwest 230 265 4,500 -1,067 Descending FlightAware ADS-B
Tue 05:46:48 AM -34.1540 151.3410 227° Southwest 227 261 4,200 -585 Descending FlightAware ADS-B
Tue 05:47:08 AM -34.1640 151.3220 238° Southwest 222 255 4,100 -300 Descending FlightAware ADS-B
Tue 05:47:28 AM -34.1710 151.2950 253° West 213 245 4,000 -250 Descending FlightAware ADS-B
Tue 05:47:32 AM -34.1710 151.2910 270° West 212 244 4,000 -480 Level FlightAware ADS-B
Tue 05:47:53 AM -34.1640 151.2710 293° West 204 235 3,800 -585 Descending FlightAware ADS-B
Tue 05:48:13 AM -34.1490 151.2560 320° Northwest 205 236 3,600 -632 Descending FlightAware ADS-B
Tue 05:48:31 AM -34.1340 151.2410 320° Northwest 201 231 3,400 -643 Descending FlightAware ADS-B
Tue 05:48:41 AM -34.1260 151.2360 333° Northwest 203 234 3,300 -1,200 Descending FlightAware ADS-B
Tue 05:49:01 AM -34.1070 151.2290 343° North 218 251 2,800 -1,200 Descending FlightAware ADS-B
Tue 05:49:21 AM -34.0870 151.2240 348° North 214 246 2,500 -878 Descending FlightAware ADS-B
Tue 05:49:42 AM -34.0680 151.2190 348° North 211 243 2,200 -900 Descending FlightAware ADS-B
Tue 05:50:01 AM -34.0490 151.2150 350° North 195 224 1,900 -1,059 Descending FlightAware ADS-B
Tue 05:50:16 AM -34.0370 151.2110 345° North 188 216 1,600 -1,200 Descending FlightAware ADS-B
Tue 05:50:36 AM -34.0210 151.2070 348° North 178 205 1,200 -1,067 Descending FlightAware ADS-B
Tue 05:51:01 AM -34.0030 151.2020 347° North 150 173 800 -789 Descending FlightAware ADS-B
Tue 05:51:14 AM -33.9970 151.2010 352° North 145 167 700 -533 Descending FlightAware ADS-B
Tue 05:51:46 AM -33.9750 151.1950 347° North 147 169 400 -563 Descending FlightAware ADS-B
Tue 05:52:06 AM -33.9610 151.1910 347° North 115 132 -1,200 Descending FlightAware ADS-B

Login

Don't have an account? Register now (free) for customized features, flight alerts, and more!